Terminal Aerodrome Forecast
Issued by NWS

Home | Current Version | Previous Version | Text Only | Print | Product List | Glossary On
Versions: 1 2 3 4 5 6 7 8 9 10 11 12 13 14 15 16
000
FTAK31 PAJN 290533
TAFAKT
TAF
PAKT 290533Z 2906/3006 15015G25KT P6SM -SHRA SCT015 OVC025
      WS020/14045KT
      TEMPO 2906/2910 6SM -SHRA BR BKN015 OVC025
     FM291000 14011G19KT 6SM -SHRA BR BKN015 OVC025 WS020/15035KT
     FM291500 14009KT P6SM -SHRA BKN015 OVC025 WS020/15030KT
     FM292200 14007KT P6SM VCSH BKN025 OVC035
     FM300200 13005KT P6SM -SHRA OVC025
      AMD LTD TO CLD VIS AND WIND 2906/2915=

USA.gov is the U.S. government's official web portal to all federal, state and local government web resources and services.